Time;durP1;ratioP1;P1;durP2;ratioP2;P2;SDS_P1;SDS_P2;PMS_P1;PMS_P2;Temp;Humidity;BMP_temperature;BMP_pressure;BME280_temperature;BME280_humidity;BME280_pressure;Samples;Min_cycle;Max_cycle;Signal;HPM_P1;HPM_P2
2021/06/27 00:00:38;;;;;;;;;;;16.20;95.50;;;;;;5064305;28;19913;-87
2021/06/27 00:03:04;;;;;;;;;;;16.10;95.60;;;;;;5057626;28;19920;-86
2021/06/27 00:05:30;;;;;;;;;;;16.10;95.50;;;;;;5079266;28;19948;-87
2021/06/27 00:07:56;;;;;;;;;;;16.20;95.40;;;;;;5090350;28;20300;-87
2021/06/27 00:10:24;;;;;;;;;;;16.20;95.50;;;;;;5071358;28;19913;-87
2021/06/27 00:12:49;;;;;;;;;;;16.10;95.40;;;;;;5076007;28;19912;-87
2021/06/27 00:15:23;;;;;;;;;;;16.00;95.60;;;;;;5075554;28;20360;-86
2021/06/27 00:17:49;;;;;;;;;;;15.90;95.50;;;;;;5074563;28;19970;-87
2021/06/27 00:20:17;;;;;;;;;;;15.90;95.80;;;;;;5057475;28;19943;-88
2021/06/27 00:22:42;;;;;;;;;;;15.70;96.00;;;;;;5058298;28;19925;-87
2021/06/27 00:25:09;;;;;;;;;;;15.70;96.10;;;;;;5076137;28;20000;-87
2021/06/27 00:27:39;;;;;;;;;;;15.70;96.10;;;;;;5058169;28;19912;-87
2021/06/27 00:30:05;;;;;;;;;;;15.70;96.10;;;;;;5075424;28;19921;-87
2021/06/27 00:32:31;;;;;;;;;;;15.60;96.00;;;;;;5075891;28;20367;-88
2021/06/27 00:34:56;;;;;;;;;;;15.40;96.20;;;;;;5074621;28;19913;-87
2021/06/27 00:37:22;;;;;;;;;;;15.30;96.40;;;;;;5076207;28;20336;-86
2021/06/27 00:39:47;;;;;;;;;;;15.20;96.70;;;;;;5074723;28;20240;-87
2021/06/27 00:42:13;;;;;;;;;;;15.20;96.80;;;;;;5075943;28;20020;-87
2021/06/27 00:44:39;;;;;;;;;;;15.30;96.80;;;;;;5075178;28;19916;-88
2021/06/27 00:47:04;;;;;;;;;;;15.30;96.70;;;;;;5075017;28;19966;-87
2021/06/27 00:49:30;;;;;;;;;;;15.30;96.60;;;;;;5074222;28;19938;-87
2021/06/27 00:51:55;;;;;;;;;;;15.50;96.50;;;;;;5074739;28;19962;-87
2021/06/27 00:54:21;;;;;;;;;;;15.60;96.20;;;;;;5077682;28;20214;-87
2021/06/27 00:56:47;;;;;;;;;;;15.80;96.00;;;;;;5079393;28;19923;-87
2021/06/27 00:59:13;;;;;;;;;;;15.90;95.60;;;;;;5070720;28;19919;-86
2021/06/27 01:01:38;;;;;;;;;;;16.10;95.60;;;;;;5079231;28;20205;-88
2021/06/27 01:04:04;;;;;;;;;;;16.20;95.40;;;;;;5079246;28;19916;-86
2021/06/27 01:06:30;;;;;;;;;;;16.20;95.20;;;;;;5078015;28;19919;-86
2021/06/27 01:08:55;;;;;;;;;;;16.20;95.10;;;;;;5079338;28;19912;-86
2021/06/27 01:11:21;;;;;;;;;;;16.20;95.10;;;;;;5079724;28;19943;-86
2021/06/27 01:13:46;;;;;;;;;;;16.20;95.10;;;;;;5078533;28;20305;-86
2021/06/27 01:16:12;;;;;;;;;;;16.30;95.00;;;;;;5078346;28;19969;-87
2021/06/27 01:18:37;;;;;;;;;;;16.20;95.00;;;;;;5079016;28;19913;-88
2021/06/27 01:21:07;;;;;;;;;;;16.20;95.10;;;;;;5077716;28;20007;-88
2021/06/27 01:23:32;;;;;;;;;;;16.10;95.10;;;;;;5080797;28;19917;-87
2021/06/27 01:25:58;;;;;;;;;;;16.10;95.10;;;;;;5078767;28;19912;-86
2021/06/27 01:28:23;;;;;;;;;;;16.00;95.30;;;;;;5064597;28;19999;-87
2021/06/27 01:30:49;;;;;;;;;;;15.80;95.40;;;;;;5098834;28;19966;-87
2021/06/27 01:33:16;;;;;;;;;;;15.60;95.70;;;;;;5061338;28;19935;-86
2021/06/27 01:35:42;;;;;;;;;;;15.30;95.80;;;;;;5060134;28;19953;-86
2021/06/27 01:38:08;;;;;;;;;;;15.20;96.10;;;;;;5060203;28;20296;-86
2021/06/27 01:40:34;;;;;;;;;;;15.10;96.30;;;;;;5078967;28;19960;-88
2021/06/27 01:43:05;;;;;;;;;;;14.90;96.60;;;;;;5060837;28;20289;-86
2021/06/27 01:45:30;;;;;;;;;;;14.70;96.70;;;;;;5063662;28;20310;-86
2021/06/27 01:47:59;;;;;;;;;;;14.60;97.00;;;;;;5060772;28;19938;-87
2021/06/27 01:50:25;;;;;;;;;;;14.40;97.20;;;;;;5077587;28;19916;-87
2021/06/27 01:52:51;;;;;;;;;;;14.30;97.40;;;;;;5079864;28;19927;-87
2021/06/27 01:55:17;;;;;;;;;;;14.40;97.60;;;;;;5077977;28;19920;-87
2021/06/27 01:57:42;;;;;;;;;;;14.60;97.50;;;;;;5062015;28;19912;-86
2021/06/27 02:00:08;;;;;;;;;;;14.90;97.10;;;;;;5078225;28;19912;-87
2021/06/27 02:02:34;;;;;;;;;;;15.10;96.50;;;;;;5060037;28;19924;-87
2021/06/27 02:05:00;;;;;;;;;;;15.30;96.20;;;;;;5076972;28;19920;-87
2021/06/27 02:07:25;;;;;;;;;;;15.40;95.90;;;;;;5077937;28;19982;-87
2021/06/27 02:09:51;;;;;;;;;;;15.60;95.70;;;;;;5077683;28;19958;-86
2021/06/27 02:12:16;;;;;;;;;;;15.70;95.50;;;;;;5069770;28;19966;-86
2021/06/27 02:14:42;;;;;;;;;;;15.60;95.40;;;;;;5066371;28;19913;-87
2021/06/27 02:17:11;;;;;;;;;;;15.50;95.40;;;;;;5077718;28;19930;-86
2021/06/27 02:19:37;;;;;;;;;;;15.40;95.60;;;;;;5088844;28;20602;-86
2021/06/27 02:22:03;;;;;;;;;;;15.50;95.60;;;;;;5077923;28;19955;-86
2021/06/27 02:24:29;;;;;;;;;;;15.70;95.50;;;;;;5059723;28;19913;-87
2021/06/27 02:26:55;;;;;;;;;;;15.80;95.10;;;;;;5077513;28;19912;-86
2021/06/27 02:29:21;;;;;;;;;;;15.90;94.90;;;;;;5078267;28;19931;-86
2021/06/27 02:31:50;;;;;;;;;;;16.00;94.70;;;;;;5077997;28;19988;-86
2021/06/27 02:34:19;;;;;;;;;;;16.10;94.70;;;;;;5077207;28;19917;-86
2021/06/27 02:36:45;;;;;;;;;;;16.10;94.60;;;;;;5077082;28;19913;-86
2021/06/27 02:39:11;;;;;;;;;;;16.20;94.50;;;;;;5061329;28;19912;-86
2021/06/27 02:41:37;;;;;;;;;;;16.30;94.20;;;;;;5077445;28;19913;-86
2021/06/27 02:44:06;;;;;;;;;;;16.40;94.00;;;;;;5077745;28;20220;-86
2021/06/27 02:46:31;;;;;;;;;;;16.30;94.00;;;;;;5077473;28;20050;-87
2021/06/27 02:48:57;;;;;;;;;;;16.30;94.00;;;;;;5095046;28;20276;-86
2021/06/27 02:51:23;;;;;;;;;;;16.30;94.00;;;;;;5065052;28;19912;-85
2021/06/27 02:53:48;;;;;;;;;;;16.30;93.80;;;;;;5076574;28;19912;-86
2021/06/27 02:56:14;;;;;;;;;;;16.40;93.90;;;;;;5077087;28;19920;-86
2021/06/27 02:58:41;;;;;;;;;;;16.40;93.80;;;;;;5077317;28;19958;-85
2021/06/27 03:01:07;;;;;;;;;;;16.40;93.60;;;;;;5077767;28;19943;-86
2021/06/27 03:03:33;;;;;;;;;;;16.40;93.80;;;;;;5089286;28;20476;-85
2021/06/27 03:05:59;;;;;;;;;;;16.30;93.90;;;;;;5076292;28;19978;-86
2021/06/27 03:08:25;;;;;;;;;;;16.40;93.60;;;;;;5077319;28;20264;-86
2021/06/27 03:10:50;;;;;;;;;;;16.40;93.60;;;;;;5078322;28;20217;-86
2021/06/27 03:13:16;;;;;;;;;;;16.40;93.60;;;;;;5076407;28;20011;-86
2021/06/27 03:15:41;;;;;;;;;;;16.40;93.60;;;;;;5082851;28;19931;-86
2021/06/27 03:18:07;;;;;;;;;;;16.40;93.50;;;;;;5085643;28;19991;-85
2021/06/27 03:20:32;;;;;;;;;;;16.40;93.70;;;;;;5075764;28;19981;-86
2021/06/27 03:22:58;;;;;;;;;;;16.40;93.60;;;;;;5089341;28;19912;-86
2021/06/27 03:25:26;;;;;;;;;;;16.40;93.70;;;;;;5077908;28;19917;-86
2021/06/27 03:27:52;;;;;;;;;;;16.40;93.60;;;;;;5076718;28;19912;-86
2021/06/27 03:30:18;;;;;;;;;;;16.50;93.50;;;;;;5076350;28;19912;-85
2021/06/27 03:32:44;;;;;;;;;;;16.60;93.40;;;;;;5076905;28;19912;-85
2021/06/27 03:35:10;;;;;;;;;;;16.60;93.30;;;;;;5075159;28;19915;-86
2021/06/27 03:37:39;;;;;;;;;;;16.60;93.40;;;;;;5076644;28;20034;-86
2021/06/27 03:40:05;;;;;;;;;;;16.70;93.30;;;;;;5076361;28;19912;-86
2021/06/27 03:42:30;;;;;;;;;;;16.70;93.30;;;;;;5076495;28;19939;-86
2021/06/27 03:44:56;;;;;;;;;;;16.70;93.30;;;;;;5077934;28;19908;-86
2021/06/27 03:47:24;;;;;;;;;;;16.80;93.30;;;;;;5085458;28;19958;-85
2021/06/27 03:49:49;;;;;;;;;;;16.80;93.20;;;;;;5076743;28;19944;-85
2021/06/27 03:52:15;;;;;;;;;;;16.80;93.20;;;;;;5070256;28;19940;-87
2021/06/27 03:54:40;;;;;;;;;;;16.80;93.30;;;;;;5058259;28;19961;-87
2021/06/27 03:57:06;;;;;;;;;;;16.80;93.20;;;;;;5075829;28;20003;-85
2021/06/27 03:59:31;;;;;;;;;;;16.80;93.10;;;;;;5059788;28;19913;-85
2021/06/27 04:01:57;;;;;;;;;;;16.90;93.20;;;;;;5076346;28;19920;-85
2021/06/27 04:04:23;;;;;;;;;;;16.90;93.40;;;;;;5074408;28;19958;-85
2021/06/27 04:06:48;;;;;;;;;;;16.90;93.20;;;;;;5075524;28;19912;-85
2021/06/27 04:09:14;;;;;;;;;;;16.90;93.40;;;;;;5058659;28;20317;-87
2021/06/27 04:11:39;;;;;;;;;;;16.80;93.40;;;;;;5073651;28;19912;-89
2021/06/27 04:14:05;;;;;;;;;;;16.80;93.30;;;;;;5090319;28;20289;-87
2021/06/27 04:16:30;;;;;;;;;;;16.80;93.40;;;;;;5065294;28;19913;-86
2021/06/27 04:18:56;;;;;;;;;;;16.80;93.40;;;;;;5075567;28;20216;-86
2021/06/27 04:21:22;;;;;;;;;;;16.90;93.50;;;;;;5075092;28;19913;-85
2021/06/27 04:23:47;;;;;;;;;;;16.90;93.50;;;;;;5075381;28;20299;-86
2021/06/27 04:26:13;;;;;;;;;;;16.90;93.40;;;;;;5075839;28;19952;-86
2021/06/27 04:28:39;;;;;;;;;;;17.00;93.30;;;;;;5058004;28;19948;-85
2021/06/27 04:31:04;;;;;;;;;;;17.00;93.60;;;;;;5077003;28;19963;-85
2021/06/27 04:33:30;;;;;;;;;;;17.00;93.50;;;;;;5075804;28;19913;-86
2021/06/27 04:35:56;;;;;;;;;;;17.00;93.60;;;;;;5074590;28;19920;-86
2021/06/27 04:38:24;;;;;;;;;;;17.00;93.40;;;;;;5066806;28;19920;-84
2021/06/27 04:40:49;;;;;;;;;;;17.00;93.50;;;;;;5074991;28;19947;-85
2021/06/27 04:43:15;;;;;;;;;;;17.10;93.50;;;;;;5075400;28;20309;-85
2021/06/27 04:45:41;;;;;;;;;;;17.20;93.30;;;;;;5058674;28;19917;-85
2021/06/27 04:50:39;;;;;;;;;;;17.20;93.30;;;;;;5052969;28;20355;-87
2021/06/27 04:53:07;;;;;;;;;;;17.30;93.30;;;;;;5038011;28;19935;-86
2021/06/27 04:55:33;;;;;;;;;;;17.30;93.40;;;;;;5055564;28;19955;-87
2021/06/27 04:57:58;;;;;;;;;;;17.40;93.40;;;;;;5055585;28;19975;-86
2021/06/27 05:00:24;;;;;;;;;;;17.40;93.10;;;;;;5036925;28;19919;-87
2021/06/27 05:02:49;;;;;;;;;;;17.50;93.10;;;;;;5055039;28;19924;-86
2021/06/27 05:05:15;;;;;;;;;;;17.50;93.40;;;;;;5054427;28;20293;-85
2021/06/27 05:07:41;;;;;;;;;;;17.60;92.90;;;;;;5052505;28;19916;-86
2021/06/27 05:10:06;;;;;;;;;;;17.70;93.10;;;;;;5055616;28;20002;-86
2021/06/27 05:12:33;;;;;;;;;;;17.80;92.70;;;;;;5053931;28;19921;-85
2021/06/27 05:14:58;;;;;;;;;;;17.80;92.70;;;;;;5052369;28;20285;-86
2021/06/27 05:17:24;;;;;;;;;;;17.80;92.60;;;;;;5053206;28;19913;-85
2021/06/27 05:19:50;;;;;;;;;;;17.80;92.80;;;;;;5049686;28;19913;-85
2021/06/27 05:22:15;;;;;;;;;;;17.80;92.70;;;;;;5049575;28;19924;-85
2021/06/27 05:24:41;;;;;;;;;;;17.80;92.70;;;;;;5051082;28;20004;-86
2021/06/27 05:27:06;;;;;;;;;;;17.90;92.70;;;;;;5032030;28;19970;-84
2021/06/27 05:29:32;;;;;;;;;;;17.80;92.70;;;;;;5050196;28;19943;-85
2021/06/27 05:31:58;;;;;;;;;;;17.90;92.60;;;;;;5050950;28;20298;-86
2021/06/27 05:34:23;;;;;;;;;;;17.90;92.90;;;;;;5049054;28;19913;-85
2021/06/27 05:36:49;;;;;;;;;;;17.80;92.80;;;;;;5050232;28;20255;-84
2021/06/27 05:39:14;;;;;;;;;;;17.70;92.70;;;;;;5050607;28;19947;-83
2021/06/27 05:41:40;;;;;;;;;;;17.70;92.90;;;;;;5035594;28;19947;-84
2021/06/27 05:44:06;;;;;;;;;;;17.60;93.20;;;;;;5054497;28;20011;-84
2021/06/27 05:46:33;;;;;;;;;;;17.50;93.20;;;;;;5054103;28;19982;-84
2021/06/27 05:48:58;;;;;;;;;;;17.50;93.20;;;;;;5053670;28;20268;-84
2021/06/27 05:51:25;;;;;;;;;;;17.50;93.40;;;;;;5052631;28;19928;-84
2021/06/27 05:53:51;;;;;;;;;;;17.60;93.20;;;;;;5053726;28;19913;-86
2021/06/27 05:56:19;;;;;;;;;;;17.80;93.20;;;;;;5053401;28;19920;-85
2021/06/27 05:58:44;;;;;;;;;;;18.00;92.40;;;;;;5051500;28;19917;-84
2021/06/27 06:01:12;;;;;;;;;;;18.20;92.40;;;;;;5055956;28;19967;-85
2021/06/27 06:03:38;;;;;;;;;;;18.40;91.70;;;;;;5052645;28;19932;-84
2021/06/27 06:06:05;;;;;;;;;;;18.50;91.50;;;;;;5035460;28;19920;-83
2021/06/27 06:08:30;;;;;;;;;;;18.60;91.50;;;;;;5053414;28;19963;-84
2021/06/27 06:10:56;;;;;;;;;;;18.70;90.70;;;;;;5051509;28;19920;-84
2021/06/27 06:13:21;;;;;;;;;;;18.80;90.20;;;;;;5052207;28;19920;-83
2021/06/27 06:15:47;;;;;;;;;;;18.90;90.20;;;;;;5037260;28;19969;-84
2021/06/27 06:18:13;;;;;;;;;;;19.00;90.00;;;;;;5053536;28;19913;-83
2021/06/27 06:20:38;;;;;;;;;;;19.10;90.50;;;;;;5033338;28;19921;-83
2021/06/27 06:23:13;;;;;;;;;;;19.20;90.00;;;;;;5053079;28;19925;-84
2021/06/27 06:25:39;;;;;;;;;;;19.30;89.60;;;;;;5052982;28;19928;-85
2021/06/27 06:28:05;;;;;;;;;;;19.40;89.20;;;;;;5053928;28;19921;-84
2021/06/27 06:30:31;;;;;;;;;;;19.60;89.20;;;;;;5053024;28;20043;-84
2021/06/27 06:32:56;;;;;;;;;;;19.70;89.10;;;;;;5053124;28;19939;-83
2021/06/27 06:35:22;;;;;;;;;;;19.80;88.20;;;;;;5051338;28;19917;-84
2021/06/27 06:37:48;;;;;;;;;;;20.00;87.70;;;;;;5052768;28;19927;-84
2021/06/27 06:40:23;;;;;;;;;;;20.20;88.00;;;;;;5057846;28;19915;-84
2021/06/27 06:42:51;;;;;;;;;;;20.40;87.30;;;;;;5073245;28;19913;-85
2021/06/27 06:45:16;;;;;;;;;;;20.50;86.20;;;;;;5052745;28;19994;-84
2021/06/27 06:47:42;;;;;;;;;;;20.50;85.80;;;;;;5051264;28;19956;-84
2021/06/27 06:50:11;;;;;;;;;;;20.50;86.20;;;;;;5050016;28;20321;-84
2021/06/27 06:52:42;;;;;;;;;;;20.50;86.30;;;;;;5032784;28;19928;-84
2021/06/27 06:55:08;;;;;;;;;;;20.70;86.30;;;;;;5053034;28;19919;-84
2021/06/27 06:57:35;;;;;;;;;;;20.80;85.70;;;;;;5052752;28;19921;-84
2021/06/27 07:00:00;;;;;;;;;;;21.00;85.20;;;;;;5052610;28;20007;-85
2021/06/27 07:02:26;;;;;;;;;;;21.20;85.00;;;;;;5052052;28;20385;-85
2021/06/27 07:04:51;;;;;;;;;;;21.30;84.60;;;;;;5050276;28;19936;-85
2021/06/27 07:07:17;;;;;;;;;;;21.30;83.80;;;;;;5051664;28;19917;-86
2021/06/27 07:09:42;;;;;;;;;;;21.30;83.70;;;;;;5052609;28;19959;-85
2021/06/27 07:12:08;;;;;;;;;;;21.30;83.60;;;;;;5034835;28;19917;-85
2021/06/27 07:14:34;;;;;;;;;;;21.40;82.70;;;;;;5052564;28;19983;-85
2021/06/27 07:16:59;;;;;;;;;;;21.50;83.00;;;;;;5052659;28;19944;-83
2021/06/27 07:19:25;;;;;;;;;;;21.60;82.80;;;;;;5051649;28;20325;-84
2021/06/27 07:21:51;;;;;;;;;;;21.50;81.50;;;;;;5052352;28;20228;-85
2021/06/27 07:24:16;;;;;;;;;;;21.60;83.90;;;;;;5052638;28;20294;-84
2021/06/27 07:26:43;;;;;;;;;;;22.10;82.10;;;;;;5052612;28;19916;-84
2021/06/27 07:29:09;;;;;;;;;;;23.20;80.20;;;;;;5034224;28;19960;-84
2021/06/27 07:31:35;;;;;;;;;;;24.60;76.40;;;;;;5052583;28;19952;-84
2021/06/27 07:34:03;;;;;;;;;;;25.60;73.20;;;;;;5051070;28;20172;-87
2021/06/27 07:36:29;;;;;;;;;;;26.10;70.00;;;;;;5051131;28;19921;-87
2021/06/27 07:38:54;;;;;;;;;;;26.20;69.50;;;;;;5052065;28;20277;-87
2021/06/27 07:41:20;;;;;;;;;;;26.40;69.70;;;;;;5052062;28;19971;-89
2021/06/27 07:43:48;;;;;;;;;;;26.70;69.10;;;;;;5052022;28;19925;-88
2021/06/27 07:46:14;;;;;;;;;;;26.60;67.70;;;;;;5055057;28;19917;-89
2021/06/27 07:48:39;;;;;;;;;;;26.70;67.40;;;;;;5055921;28;19982;-89
2021/06/27 07:51:05;;;;;;;;;;;26.30;69.60;;;;;;5051099;28;19927;-88
2021/06/27 07:53:31;;;;;;;;;;;27.00;67.80;;;;;;5051663;28;19967;-89
2021/06/27 07:55:56;;;;;;;;;;;27.20;67.30;;;;;;5033709;28;20377;-88
2021/06/27 07:58:22;;;;;;;;;;;27.80;67.80;;;;;;5051594;28;20301;-88
2021/06/27 08:00:47;;;;;;;;;;;29.00;66.40;;;;;;5051383;28;19999;-88
2021/06/27 08:03:13;;;;;;;;;;;30.30;62.40;;;;;;5050690;28;19924;-87
2021/06/27 08:05:38;;;;;;;;;;;29.90;61.10;;;;;;5032446;28;19920;-87
2021/06/27 08:08:04;;;;;;;;;;;29.50;62.30;;;;;;5050443;28;19939;-87
2021/06/27 08:10:31;;;;;;;;;;;29.90;64.50;;;;;;5050213;28;19912;-88
2021/06/27 08:12:57;;;;;;;;;;;30.10;62.60;;;;;;5036833;28;19920;-88
2021/06/27 08:15:22;;;;;;;;;;;29.90;61.10;;;;;;5054590;28;19909;-88
2021/06/27 08:17:49;;;;;;;;;;;29.80;61.60;;;;;;5054303;28;19917;-86
2021/06/27 08:20:15;;;;;;;;;;;30.00;61.90;;;;;;5036398;28;19908;-87
2021/06/27 08:22:40;;;;;;;;;;;30.80;61.40;;;;;;5050781;28;20506;-87
2021/06/27 08:25:06;;;;;;;;;;;30.60;60.50;;;;;;5050829;28;20016;-88
2021/06/27 08:27:32;;;;;;;;;;;30.10;59.40;;;;;;5050819;28;19931;-88
2021/06/27 08:29:57;;;;;;;;;;;30.20;59.90;;;;;;5051038;28;19921;-88
2021/06/27 08:32:28;;;;;;;;;;;29.80;59.50;;;;;;5066532;28;20289;-88
2021/06/27 08:34:54;;;;;;;;;;;29.50;61.30;;;;;;5032441;28;19913;-89
2021/06/27 08:37:19;;;;;;;;;;;29.30;60.50;;;;;;5050284;28;19920;-88
2021/06/27 08:39:45;;;;;;;;;;;28.40;61.60;;;;;;5050790;28;20522;-90
2021/06/27 08:42:10;;;;;;;;;;;27.30;64.00;;;;;;5032996;28;19943;-88
2021/06/27 08:44:36;;;;;;;;;;;27.10;64.20;;;;;;5051392;28;20456;-88
2021/06/27 08:47:02;;;;;;;;;;;27.50;65.60;;;;;;5050241;28;19925;-89
2021/06/27 08:49:28;;;;;;;;;;;28.40;63.50;;;;;;5049556;28;19966;-89
2021/06/27 08:51:55;;;;;;;;;;;29.60;62.50;;;;;;5051604;28;19917;-88
2021/06/27 08:54:21;;;;;;;;;;;30.30;58.70;;;;;;5050803;28;20313;-89
2021/06/27 08:56:46;;;;;;;;;;;30.70;58.30;;;;;;5033460;28;19959;-84
2021/06/27 08:59:12;;;;;;;;;;;31.00;57.20;;;;;;5034351;28;20209;-89
2021/06/27 09:01:38;;;;;;;;;;;30.80;56.60;;;;;;5055932;28;20321;-89
2021/06/27 09:04:03;;;;;;;;;;;31.00;56.20;;;;;;5037773;28;19979;-89
2021/06/27 09:06:33;;;;;;;;;;;30.50;55.60;;;;;;5053085;28;19963;-88
2021/06/27 09:09:08;;;;;;;;;;;29.40;59.70;;;;;;5054725;28;19921;-88
2021/06/27 09:11:33;;;;;;;;;;;30.20;57.30;;;;;;5055430;28;19913;-89
2021/06/27 09:13:59;;;;;;;;;;;30.50;57.30;;;;;;5055530;28;19963;-89
2021/06/27 09:16:25;;;;;;;;;;;30.60;58.30;;;;;;5040304;28;19913;-89
2021/06/27 09:18:51;;;;;;;;;;;31.10;56.30;;;;;;5044158;28;19960;-89
2021/06/27 09:21:17;;;;;;;;;;;31.30;56.00;;;;;;5055990;28;19920;-88
2021/06/27 09:23:44;;;;;;;;;;;31.80;56.40;;;;;;5073082;28;20225;-89
2021/06/27 09:26:10;;;;;;;;;;;31.90;54.80;;;;;;5041045;28;20011;-88
2021/06/27 09:28:54;;;;;;;;;;;31.40;55.80;;;;;;5035875;28;20349;-90
2021/06/27 09:31:37;;;;;;;;;;;31.40;56.10;;;;;;5069517;28;19969;-89
2021/06/27 09:34:04;;;;;;;;;;;31.30;55.10;;;;;;5059333;28;20285;-89
2021/06/27 09:36:30;;;;;;;;;;;30.90;56.90;;;;;;5047505;28;19939;-86
2021/06/27 09:38:56;;;;;;;;;;;31.00;57.30;;;;;;5059490;28;19917;-85
2021/06/27 09:41:24;;;;;;;;;;;31.50;55.70;;;;;;5052534;28;21535;-89
2021/06/27 09:43:51;;;;;;;;;;;32.40;53.60;;;;;;5061449;28;19921;-88
2021/06/27 09:46:17;;;;;;;;;;;32.40;52.20;;;;;;5037169;28;20005;-88
2021/06/27 09:48:51;;;;;;;;;;;32.50;51.90;;;;;;5053743;28;20047;-88
2021/06/27 09:51:17;;;;;;;;;;;32.00;54.00;;;;;;5035418;28;20332;-89
2021/06/27 09:53:45;;;;;;;;;;;32.10;51.60;;;;;;5046543;28;19917;-89
2021/06/27 09:56:11;;;;;;;;;;;30.90;55.60;;;;;;5034285;28;19963;-87
2021/06/27 09:58:37;;;;;;;;;;;31.60;54.80;;;;;;5037931;28;19956;-87
2021/06/27 10:01:03;;;;;;;;;;;32.00;53.60;;;;;;5043515;28;19926;-88
2021/06/27 10:03:43;;;;;;;;;;;30.30;54.20;;;;;;5061116;28;19924;-88
2021/06/27 10:06:09;;;;;;;;;;;30.10;55.80;;;;;;5057225;28;19924;-88
2021/06/27 10:08:34;;;;;;;;;;;30.90;53.30;;;;;;5039483;28;19928;-88
2021/06/27 10:11:16;;;;;;;;;;;31.20;56.50;;;;;;5053997;28;19913;-88
2021/06/27 10:13:46;;;;;;;;;;;31.50;53.00;;;;;;5055038;28;19920;-88
2021/06/27 10:16:15;;;;;;;;;;;30.60;51.50;;;;;;5054718;28;20337;-88
2021/06/27 10:18:41;;;;;;;;;;;30.80;52.50;;;;;;5036450;28;20399;-88
2021/06/27 10:21:09;;;;;;;;;;;30.80;55.10;;;;;;5053052;28;19956;-88
2021/06/27 10:23:41;;;;;;;;;;;31.80;53.90;;;;;;5046590;28;19924;-87
2021/06/27 10:26:07;;;;;;;;;;;33.00;51.20;;;;;;5055200;28;19913;-87
2021/06/27 10:28:33;;;;;;;;;;;33.70;50.80;;;;;;5053488;28;19959;-87
2021/06/27 10:30:59;;;;;;;;;;;33.90;49.30;;;;;;5067230;28;19921;-87
2021/06/27 10:33:25;;;;;;;;;;;33.10;49.70;;;;;;5041098;28;20228;-87
2021/06/27 10:35:52;;;;;;;;;;;32.30;49.80;;;;;;5052547;28;19964;-87
2021/06/27 10:38:23;;;;;;;;;;;32.20;50.20;;;;;;5049136;28;19917;-87
2021/06/27 10:40:50;;;;;;;;;;;30.90;49.70;;;;;;5053064;28;19917;-87
2021/06/27 10:43:15;;;;;;;;;;;31.00;49.90;;;;;;5050037;28;20207;-87
2021/06/27 10:45:47;;;;;;;;;;;31.70;49.40;;;;;;5033831;28;19931;-88
2021/06/27 10:48:31;;;;;;;;;;;31.40;51.00;;;;;;5057171;28;19970;-87
2021/06/27 10:50:57;;;;;;;;;;;31.80;49.70;;;;;;5050609;28;19928;-88
2021/06/27 10:53:24;;;;;;;;;;;32.20;51.60;;;;;;5031006;28;20320;-88
2021/06/27 10:55:50;;;;;;;;;;;32.10;50.00;;;;;;5033920;28;20028;-87
2021/06/27 10:58:34;;;;;;;;;;;32.50;50.10;;;;;;5054089;28;19923;-89
2021/06/27 11:01:00;;;;;;;;;;;33.30;49.70;;;;;;5039275;28;19916;-87
2021/06/27 11:03:33;;;;;;;;;;;33.60;47.10;;;;;;5061581;28;19920;-89
2021/06/27 11:05:59;;;;;;;;;;;33.30;47.90;;;;;;5035469;28;19917;-89
2021/06/27 11:08:38;;;;;;;;;;;32.80;51.50;;;;;;5036452;28;19921;-88
2021/06/27 11:11:09;;;;;;;;;;;32.60;50.20;;;;;;5054524;28;19913;-89
2021/06/27 11:13:38;;;;;;;;;;;32.50;49.10;;;;;;5054256;28;19925;-89
2021/06/27 11:16:06;;;;;;;;;;;33.00;49.90;;;;;;5054393;28;19952;-89
2021/06/27 11:18:37;;;;;;;;;;;32.90;50.40;;;;;;5054078;28;19921;-86
2021/06/27 11:21:05;;;;;;;;;;;32.20;51.90;;;;;;5055873;28;19916;-89
2021/06/27 11:23:51;;;;;;;;;;;32.10;52.40;;;;;;5071480;28;19916;-88
2021/06/27 11:26:35;;;;;;;;;;;32.20;52.80;;;;;;5042422;28;19917;-88
2021/06/27 11:29:01;;;;;;;;;;;32.10;51.10;;;;;;5052771;28;19928;-88
2021/06/27 11:31:27;;;;;;;;;;;31.90;52.90;;;;;;5053643;28;19917;-87
2021/06/27 11:34:28;;;;;;;;;;;31.90;53.00;;;;;;5053174;28;20229;-88
2021/06/27 11:36:57;;;;;;;;;;;32.20;52.60;;;;;;5014585;28;19912;-87
2021/06/27 11:39:41;;;;;;;;;;;32.50;50.80;;;;;;5035176;28;19913;-87
2021/06/27 11:42:28;;;;;;;;;;;32.50;52.40;;;;;;5054902;28;19925;-87
2021/06/27 11:45:09;;;;;;;;;;;32.90;50.70;;;;;;5047234;28;20237;-88
2021/06/27 11:47:35;;;;;;;;;;;32.60;49.80;;;;;;5070949;28;19927;-87
2021/06/27 11:50:14;;;;;;;;;;;32.60;51.20;;;;;;5050029;28;19986;-88
2021/06/27 11:52:40;;;;;;;;;;;32.10;51.40;;;;;;5046412;28;20023;-88
2021/06/27 11:55:06;;;;;;;;;;;31.60;52.20;;;;;;5053758;28;20007;-88
2021/06/27 11:57:40;;;;;;;;;;;31.60;54.50;;;;;;5052501;28;20294;-87
2021/06/27 12:00:07;;;;;;;;;;;31.70;53.60;;;;;;5052834;28;20579;-88
2021/06/27 12:02:33;;;;;;;;;;;31.50;54.80;;;;;;5036169;28;19943;-88
2021/06/27 12:05:00;;;;;;;;;;;32.10;54.00;;;;;;5051931;28;19917;-88
2021/06/27 12:07:31;;;;;;;;;;;32.30;53.70;;;;;;5036042;28;19909;-88
2021/06/27 12:09:58;;;;;;;;;;;32.60;54.20;;;;;;5068662;28;19917;-88
2021/06/27 12:12:41;;;;;;;;;;;32.80;54.60;;;;;;5053236;28;19912;-88
2021/06/27 12:15:19;;;;;;;;;;;33.00;53.30;;;;;;5042404;28;19965;-88
2021/06/27 12:18:05;;;;;;;;;;;32.70;53.50;;;;;;5058659;28;19923;-89
2021/06/27 12:20:32;;;;;;;;;;;33.10;50.10;;;;;;5033979;28;19939;-88
2021/06/27 12:23:00;;;;;;;;;;;33.50;50.10;;;;;;5052814;28;19921;-88
2021/06/27 12:25:49;;;;;;;;;;;33.00;52.80;;;;;;5056707;28;20288;-88
2021/06/27 12:28:15;;;;;;;;;;;32.60;53.10;;;;;;5021155;28;20271;-88
2021/06/27 12:30:52;;;;;;;;;;;32.50;53.00;;;;;;5052458;28;20003;-87
2021/06/27 12:33:19;;;;;;;;;;;32.50;55.60;;;;;;5048457;28;19927;-88
2021/06/27 12:35:46;;;;;;;;;;;32.50;52.40;;;;;;5049427;28;20014;-88
2021/06/27 12:38:14;;;;;;;;;;;32.70;54.00;;;;;;5038097;28;19971;-88
2021/06/27 12:40:50;;;;;;;;;;;32.70;53.20;;;;;;5034283;28;19971;-87
2021/06/27 12:43:19;;;;;;;;;;;32.60;54.90;;;;;;5052414;28;20302;-88
2021/06/27 12:45:45;;;;;;;;;;;32.90;55.00;;;;;;5041597;28;19971;-87
2021/06/27 12:48:11;;;;;;;;;;;32.70;54.90;;;;;;5038647;28;20276;-87
2021/06/27 12:50:38;;;;;;;;;;;33.20;54.20;;;;;;5052252;28;19925;-88
2021/06/27 12:53:23;;;;;;;;;;;33.40;54.30;;;;;;5055164;28;19964;-88
2021/06/27 12:56:08;;;;;;;;;;;33.50;53.40;;;;;;5054570;28;19917;-88
2021/06/27 12:58:55;;;;;;;;;;;33.00;53.10;;;;;;5055221;28;19921;-88
2021/06/27 13:01:21;;;;;;;;;;;32.60;53.30;;;;;;5033644;28;19924;-88
2021/06/27 13:03:57;;;;;;;;;;;32.40;53.90;;;;;;5039315;28;19913;-88
2021/06/27 13:06:22;;;;;;;;;;;32.60;54.80;;;;;;5054997;28;20373;-88
2021/06/27 13:08:50;;;;;;;;;;;32.80;53.50;;;;;;5040071;28;19921;-89
2021/06/27 13:11:16;;;;;;;;;;;33.50;52.00;;;;;;5056336;28;19920;-87
2021/06/27 13:13:42;;;;;;;;;;;33.70;52.20;;;;;;5056223;28;20237;-88
2021/06/27 13:16:14;;;;;;;;;;;33.80;54.20;;;;;;5037597;28;19942;-89
2021/06/27 13:18:40;;;;;;;;;;;34.10;51.90;;;;;;5055490;28;19913;-87
2021/06/27 13:21:16;;;;;;;;;;;34.70;51.60;;;;;;5053774;28;19913;-87
2021/06/27 13:23:42;;;;;;;;;;;34.60;52.00;;;;;;5055717;28;19929;-88
2021/06/27 13:26:09;;;;;;;;;;;35.20;50.50;;;;;;5055947;28;19935;-87
2021/06/27 13:28:38;;;;;;;;;;;35.20;49.40;;;;;;5054570;28;20020;-88
2021/06/27 13:31:06;;;;;;;;;;;34.50;48.90;;;;;;5052455;28;19956;-87
2021/06/27 13:33:35;;;;;;;;;;;33.50;52.40;;;;;;5047997;28;20214;-87
2021/06/27 13:36:04;;;;;;;;;;;32.00;54.20;;;;;;5056322;28;19913;-88
2021/06/27 13:38:30;;;;;;;;;;;32.00;57.30;;;;;;5058330;28;19909;-89
2021/06/27 13:40:56;;;;;;;;;;;33.40;50.90;;;;;;5056407;28;19920;-87
2021/06/27 13:43:21;;;;;;;;;;;34.60;50.50;;;;;;5057512;28;19978;-89
2021/06/27 13:45:48;;;;;;;;;;;34.60;51.70;;;;;;5038179;28;20293;-89
2021/06/27 13:48:14;;;;;;;;;;;34.90;49.80;;;;;;5058756;28;20212;-87
2021/06/27 13:50:40;;;;;;;;;;;34.50;49.20;;;;;;5057301;28;20009;-89
2021/06/27 13:53:06;;;;;;;;;;;33.10;51.00;;;;;;5058875;28;19912;-89
2021/06/27 13:55:31;;;;;;;;;;;33.20;51.90;;;;;;5059255;28;20305;-89
2021/06/27 13:57:57;;;;;;;;;;;33.80;51.80;;;;;;5057206;28;19913;-88
2021/06/27 14:00:26;;;;;;;;;;;34.00;50.40;;;;;;5056315;28;19916;-89
2021/06/27 14:02:53;;;;;;;;;;;34.40;49.50;;;;;;5057674;28;19917;-89
2021/06/27 14:05:19;;;;;;;;;;;35.10;49.80;;;;;;5055726;28;20256;-89
2021/06/27 14:07:45;;;;;;;;;;;35.60;50.30;;;;;;5040906;28;19913;-88
2021/06/27 14:10:16;;;;;;;;;;;35.50;49.50;;;;;;5069063;28;19917;-88
2021/06/27 14:12:41;;;;;;;;;;;34.90;48.90;;;;;;5056342;28;19913;-89
2021/06/27 14:15:08;;;;;;;;;;;34.10;51.20;;;;;;5057177;28;19919;-89
2021/06/27 14:17:34;;;;;;;;;;;33.40;51.30;;;;;;5062429;28;19916;-88
2021/06/27 14:20:10;;;;;;;;;;;32.30;53.00;;;;;;5057464;28;19913;-87